Terminal Aerodrome Forecast
Issued by NWS

Home | Current Version | Previous Version | Text Only | Print | Product List | Glossary On
Versions: 1 2 3 4 5 6 7 8 9 10 11 12 13 14 15 16 17 18 19 20 21 22 23
000
FTUS46 KSEW 182300
TAFSEA
TAF
KSEA 182330Z 1900/2006 15004KT P6SM -RA FEW030 BKN050 OVC070
     FM190200 15010KT P6SM -RA OVC030
     FM190500 15012KT 5SM -RA BR OVC015 WS020/20045KT
     FM190800 18012G18KT P6SM -SHRA BKN020 BKN035
     FM192000 20010KT P6SM VCSH SCT020 BKN035=

USA.gov is the U.S. government's official web portal to all federal, state and local government web resources and services.